sensor_id;sensor_type;location;lat;lon;timestamp;pressure;altitude;pressure_sealevel;temperature;humidity
57376;BME280;44805;45.048;5.062;2023-01-16T00:02:14;99074.31;;;0.55;100.00
57376;BME280;44805;45.048;5.062;2023-01-16T00:07:45;99043.13;;;0.43;100.00
57376;BME280;44805;45.048;5.062;2023-01-16T00:11:03;99033.84;;;0.14;100.00
57376;BME280;44805;45.048;5.062;2023-01-16T00:13:56;99041.97;;;0.35;100.00
57376;BME280;44805;45.048;5.062;2023-01-16T00:16:33;99137.72;;;0.89;100.00
57376;BME280;44805;45.048;5.062;2023-01-16T00:19:23;99069.94;;;0.42;100.00
57376;BME280;44805;45.048;5.062;2023-01-16T00:22:19;99120.28;;;1.04;100.00
57376;BME280;44805;45.048;5.062;2023-01-16T00:25:14;99045.59;;;0.45;100.00
57376;BME280;44805;45.048;5.062;2023-01-16T00:27:53;99037.41;;;0.26;100.00
57376;BME280;44805;45.048;5.062;2023-01-16T00:33:04;99136.34;;;1.09;100.00
57376;BME280;44805;45.048;5.062;2023-01-16T00:38:21;99039.16;;;0.25;100.00
57376;BME280;44805;45.048;5.062;2023-01-16T01:01:08;99040.25;;;0.08;100.00
57376;BME280;44805;45.048;5.062;2023-01-16T01:04:24;99098.19;;;0.73;100.00
57376;BME280;44805;45.048;5.062;2023-01-16T01:06:51;99093.72;;;0.62;100.00
57376;BME280;44805;45.048;5.062;2023-01-16T01:09:20;98969.63;;;-0.07;100.00
57376;BME280;44805;45.048;5.062;2023-01-16T01:11:52;98953.13;;;-0.18;100.00
57376;BME280;44805;45.048;5.062;2023-01-16T01:14:18;98887.06;;;-0.50;100.00
57376;BME280;44805;45.048;5.062;2023-01-16T01:16:46;98909.56;;;-0.25;100.00
57376;BME280;44805;45.048;5.062;2023-01-16T01:19:30;99055.88;;;0.59;100.00
57376;BME280;44805;45.048;5.062;2023-01-16T01:21:56;99052.56;;;0.57;100.00
57376;BME280;44805;45.048;5.062;2023-01-16T01:24:21;98895.31;;;-0.17;100.00
57376;BME280;44805;45.048;5.062;2023-01-16T01:26:47;98944.22;;;0.26;100.00
57376;BME280;44805;45.048;5.062;2023-01-16T01:42:12;98888.69;;;0.30;100.00
57376;BME280;44805;45.048;5.062;2023-01-16T01:45:31;98952.59;;;0.55;100.00
57376;BME280;44805;45.048;5.062;2023-01-16T01:48:27;98998.78;;;0.74;100.00
57376;BME280;44805;45.048;5.062;2023-01-16T02:05:03;98764.56;;;-0.61;100.00
57376;BME280;44805;45.048;5.062;2023-01-16T02:07:49;98804.22;;;-0.48;100.00
57376;BME280;44805;45.048;5.062;2023-01-16T02:10:56;98795.97;;;-0.28;100.00
57376;BME280;44805;45.048;5.062;2023-01-16T02:13:25;98726.72;;;-0.75;100.00
57376;BME280;44805;45.048;5.062;2023-01-16T02:16:28;98807.13;;;-0.02;100.00
57376;BME280;44805;45.048;5.062;2023-01-16T02:19:48;98894.84;;;0.65;100.00
57376;BME280;44805;45.048;5.062;2023-01-16T02:41:31;98812.97;;;0.76;100.00
57376;BME280;44805;45.048;5.062;2023-01-16T02:44:35;98794.22;;;0.72;100.00
57376;BME280;44805;45.048;5.062;2023-01-16T02:51:04;98614.69;;;-0.25;100.00
57376;BME280;44805;45.048;5.062;2023-01-16T02:56:19;98631.44;;;-0.17;100.00
57376;BME280;44805;45.048;5.062;2023-01-16T02:59:16;98752.50;;;0.64;100.00
57376;BME280;44805;45.048;5.062;2023-01-16T03:02:03;98577.28;;;-0.45;100.00
57376;BME280;44805;45.048;5.062;2023-01-16T03:04:47;98555.31;;;-0.39;100.00
57376;BME280;44805;45.048;5.062;2023-01-16T03:10:19;98572.84;;;-0.18;100.00
57376;BME280;44805;45.048;5.062;2023-01-16T03:16:12;98710.81;;;0.43;100.00
57376;BME280;44805;45.048;5.062;2023-01-16T03:35:56;98481.31;;;-0.05;100.00
57376;BME280;44805;45.048;5.062;2023-01-16T03:38:37;98461.06;;;-0.11;100.00
57376;BME280;44805;45.048;5.062;2023-01-16T03:41:17;98481.81;;;0.01;100.00
57376;BME280;44805;45.048;5.062;2023-01-16T03:44:00;98506.56;;;0.27;100.00
57376;BME280;44805;45.048;5.062;2023-01-16T03:46:48;98472.09;;;0.15;100.00
57376;BME280;44805;45.048;5.062;2023-01-16T03:49:30;98624.59;;;1.12;100.00
57376;BME280;44805;45.048;5.062;2023-01-16T03:52:18;98441.72;;;0.17;100.00
57376;BME280;44805;45.048;5.062;2023-01-16T03:57:50;98440.25;;;0.49;100.00
57376;BME280;44805;45.048;5.062;2023-01-16T04:00:20;98404.78;;;0.38;100.00
57376;BME280;44805;45.048;5.062;2023-01-16T04:02:54;98512.06;;;1.25;99.68
57376;BME280;44805;45.048;5.062;2023-01-16T04:05:38;98540.22;;;1.41;98.92
57376;BME280;44805;45.048;5.062;2023-01-16T04:10:46;98403.41;;;0.56;99.78
57376;BME280;44805;45.048;5.062;2023-01-16T04:13:27;98368.66;;;0.25;99.15
57376;BME280;44805;45.048;5.062;2023-01-16T04:16:00;98406.44;;;0.50;100.00
57376;BME280;44805;45.048;5.062;2023-01-16T04:18:31;98405.16;;;0.67;100.00
57376;BME280;44805;45.048;5.062;2023-01-16T04:20:58;98322.06;;;0.25;100.00
57376;BME280;44805;45.048;5.062;2023-01-16T04:23:29;98298.91;;;0.01;99.16
57376;BME280;44805;45.048;5.062;2023-01-16T04:25:55;98447.88;;;0.95;100.00
57376;BME280;44805;45.048;5.062;2023-01-16T04:28:21;98426.34;;;0.72;100.00
57376;BME280;44805;45.048;5.062;2023-01-16T04:30:49;98320.31;;;0.26;100.00
57376;BME280;44805;45.048;5.062;2023-01-16T04:33:48;98461.38;;;1.21;99.99
57376;BME280;44805;45.048;5.062;2023-01-16T04:39:00;98336.78;;;0.25;100.00
57376;BME280;44805;45.048;5.062;2023-01-16T04:56:26;98366.47;;;0.98;100.00
57376;BME280;44805;45.048;5.062;2023-01-16T04:59:17;98190.47;;;-0.02;100.00
57376;BME280;44805;45.048;5.062;2023-01-16T05:01:46;98183.66;;;-0.03;100.00
57376;BME280;44805;45.048;5.062;2023-01-16T05:04:14;98171.06;;;-0.08;100.00
57376;BME280;44805;45.048;5.062;2023-01-16T05:06:42;98154.47;;;-0.05;100.00
57376;BME280;44805;45.048;5.062;2023-01-16T05:09:08;98175.06;;;-0.04;99.54
57376;BME280;44805;45.048;5.062;2023-01-16T05:11:34;98132.78;;;-0.25;100.00
57376;BME280;44805;45.048;5.062;2023-01-16T05:14:00;98118.78;;;-0.23;99.80
57376;BME280;44805;45.048;5.062;2023-01-16T05:16:32;98216.09;;;0.56;100.00
57376;BME280;44805;45.048;5.062;2023-01-16T05:19:11;98223.84;;;0.67;100.00
57376;BME280;44805;45.048;5.062;2023-01-16T05:21:57;98178.28;;;0.64;100.00
57376;BME280;44805;45.048;5.062;2023-01-16T05:24:22;98216.09;;;0.88;100.00
57376;BME280;44805;45.048;5.062;2023-01-16T05:26:47;98181.28;;;0.81;100.00
57376;BME280;44805;45.048;5.062;2023-01-16T05:29:16;98108.28;;;0.55;100.00
57376;BME280;44805;45.048;5.062;2023-01-16T05:31:43;98180.06;;;1.06;99.58
57376;BME280;44805;45.048;5.062;2023-01-16T05:34:33;98275.19;;;1.26;100.00
57376;BME280;44805;45.048;5.062;2023-01-16T05:37:01;98123.19;;;0.62;100.00
57376;BME280;44805;45.048;5.062;2023-01-16T05:39:26;98175.03;;;1.04;100.00
57376;BME280;44805;45.048;5.062;2023-01-16T05:41:53;98230.94;;;1.70;100.00
57376;BME280;44805;45.048;5.062;2023-01-16T05:44:18;98175.78;;;1.78;98.59
57376;BME280;44805;45.048;5.062;2023-01-16T05:46:44;98171.38;;;1.99;97.03
57376;BME280;44805;45.048;5.062;2023-01-16T05:49:10;98217.38;;;2.37;94.87
57376;BME280;44805;45.048;5.062;2023-01-16T05:51:35;98098.88;;;1.67;93.82
57376;BME280;44805;45.048;5.062;2023-01-16T05:54:01;98127.59;;;1.85;93.40
57376;BME280;44805;45.048;5.062;2023-01-16T05:56:27;98122.16;;;1.98;93.21
57376;BME280;44805;45.048;5.062;2023-01-16T05:58:55;98128.75;;;2.02;93.79
57376;BME280;44805;45.048;5.062;2023-01-16T06:01:22;98130.69;;;2.19;93.28
57376;BME280;44805;45.048;5.062;2023-01-16T06:03:49;98094.47;;;2.17;93.20
57376;BME280;44805;45.048;5.062;2023-01-16T06:06:16;98112.63;;;2.17;92.73
57376;BME280;44805;45.048;5.062;2023-01-16T06:08:41;98171.16;;;2.51;93.70
57376;BME280;44805;45.048;5.062;2023-01-16T06:11:07;98139.81;;;2.13;93.74
57376;BME280;44805;45.048;5.062;2023-01-16T06:13:32;98114.00;;;2.12;94.22
57376;BME280;44805;45.048;5.062;2023-01-16T06:15:58;98130.28;;;2.33;94.04
57376;BME280;44805;45.048;5.062;2023-01-16T06:18:23;98188.94;;;2.85;92.90
57376;BME280;44805;45.048;5.062;2023-01-16T06:20:49;98123.03;;;2.66;93.19
57376;BME280;44805;45.048;5.062;2023-01-16T06:23:14;98121.53;;;2.73;95.31
57376;BME280;44805;45.048;5.062;2023-01-16T06:25:39;98174.25;;;3.13;94.77
57376;BME280;44805;45.048;5.062;2023-01-16T06:28:05;98170.84;;;3.02;95.13
57376;BME280;44805;45.048;5.062;2023-01-16T06:30:31;98232.44;;;3.31;95.89
57376;BME280;44805;45.048;5.062;2023-01-16T06:32:56;98102.13;;;2.58;97.30
57376;BME280;44805;45.048;5.062;2023-01-16T06:35:50;98272.06;;;3.62;98.93
57376;BME280;44805;45.048;5.062;2023-01-16T06:38:25;98173.63;;;3.01;99.70
57376;BME280;44805;45.048;5.062;2023-01-16T06:40:51;98129.31;;;2.93;98.81
57376;BME280;44805;45.048;5.062;2023-01-16T06:43:37;98183.50;;;3.44;99.63
57376;BME280;44805;45.048;5.062;2023-01-16T07:19:07;98232.31;;;4.35;100.00
57376;BME280;44805;45.048;5.062;2023-01-16T09:03:51;97933.81;;;5.60;90.78
57376;BME280;44805;45.048;5.062;2023-01-16T09:06:30;97944.22;;;5.52;91.40
57376;BME280;44805;45.048;5.062;2023-01-16T09:14:51;98006.03;;;6.10;90.68
57376;BME280;44805;45.048;5.062;2023-01-16T09:17:22;97933.97;;;5.58;89.66
57376;BME280;44805;45.048;5.062;2023-01-16T09:19:58;97931.50;;;5.57;90.09
57376;BME280;44805;45.048;5.062;2023-01-16T09:29:12;97920.44;;;5.63;91.14
57376;BME280;44805;45.048;5.062;2023-01-16T09:31:38;98022.06;;;6.40;91.07
57376;BME280;44805;45.048;5.062;2023-01-16T09:34:04;97962.59;;;6.09;91.37
57376;BME280;44805;45.048;5.062;2023-01-16T09:36:29;97939.09;;;6.01;92.14
57376;BME280;44805;45.048;5.062;2023-01-16T09:38:55;97910.97;;;5.86;91.88
57376;BME280;44805;45.048;5.062;2023-01-16T09:41:22;97866.28;;;5.73;91.53
57376;BME280;44805;45.048;5.062;2023-01-16T09:44:13;98026.91;;;6.76;90.27
57376;BME280;44805;45.048;5.062;2023-01-16T09:46:48;97946.72;;;6.51;90.22
57376;BME280;44805;45.048;5.062;2023-01-16T09:52:05;97879.91;;;6.41;89.18
57376;BME280;44805;45.048;5.062;2023-01-16T09:54:54;97953.84;;;6.74;89.30
57376;BME280;44805;45.048;5.062;2023-01-16T09:57:39;98026.78;;;7.25;89.26
57376;BME280;44805;45.048;5.062;2023-01-16T10:00:27;98019.69;;;6.94;90.14
57376;BME280;44805;45.048;5.062;2023-01-16T10:02:55;98002.53;;;6.83;90.64
57376;BME280;44805;45.048;5.062;2023-01-16T10:05:22;98016.56;;;6.99;90.58
57376;BME280;44805;45.048;5.062;2023-01-16T10:08:11;97936.06;;;6.61;90.82
57376;BME280;44805;45.048;5.062;2023-01-16T10:11:13;97994.75;;;7.14;91.21
57376;BME280;44805;45.048;5.062;2023-01-16T10:16:33;98002.88;;;7.36;91.17
57376;BME280;44805;45.048;5.062;2023-01-16T10:19:15;98003.84;;;7.35;91.17
57376;BME280;44805;45.048;5.062;2023-01-16T10:31:21;97906.16;;;6.72;92.99
57376;BME280;44805;45.048;5.062;2023-01-16T10:55:25;97808.97;;;6.83;92.99
57376;BME280;44805;45.048;5.062;2023-01-16T11:00:41;97950.53;;;7.82;89.70
57376;BME280;44805;45.048;5.062;2023-01-16T11:06:59;97938.53;;;8.11;86.02
57376;BME280;44805;45.048;5.062;2023-01-16T11:26:34;97788.72;;;7.08;86.81
57376;BME280;44805;45.048;5.062;2023-01-16T11:29:00;97823.19;;;7.35;85.26
57376;BME280;44805;45.048;5.062;2023-01-16T11:31:27;97821.50;;;7.19;86.53
57376;BME280;44805;45.048;5.062;2023-01-16T11:37:18;97775.78;;;6.84;85.93
57376;BME280;44805;45.048;5.062;2023-01-16T11:39:50;97899.03;;;7.74;85.06
57376;BME280;44805;45.048;5.062;2023-01-16T11:42:20;97811.69;;;7.21;86.60
57376;BME280;44805;45.048;5.062;2023-01-16T11:45:13;97813.28;;;7.45;87.32
57376;BME280;44805;45.048;5.062;2023-01-16T11:47:54;97826.91;;;7.64;86.97
57376;BME280;44805;45.048;5.062;2023-01-16T11:50:36;97832.38;;;7.77;87.35
57376;BME280;44805;45.048;5.062;2023-01-16T12:06:28;97825.66;;;8.27;84.57
57376;BME280;44805;45.048;5.062;2023-01-16T12:09:29;97831.00;;;8.48;83.93
57376;BME280;44805;45.048;5.062;2023-01-16T14:35:56;97632.50;;;8.13;76.46
57376;BME280;44805;45.048;5.062;2023-01-16T14:38:25;97599.50;;;8.03;75.96
57376;BME280;44805;45.048;5.062;2023-01-16T14:41:14;97597.28;;;8.00;75.85
57376;BME280;44805;45.048;5.062;2023-01-16T14:46:32;97676.16;;;8.57;77.58
57376;BME280;44805;45.048;5.062;2023-01-16T14:56:07;97700.03;;;8.47;78.89
57376;BME280;44805;45.048;5.062;2023-01-16T14:58:55;97606.00;;;7.86;78.29
57376;BME280;44805;45.048;5.062;2023-01-16T15:11:10;97720.88;;;8.70;75.67
57376;BME280;44805;45.048;5.062;2023-01-16T15:16:32;97649.50;;;8.38;75.82
57376;BME280;44805;45.048;5.062;2023-01-16T15:19:25;97558.47;;;7.89;74.97
57376;BME280;44805;45.048;5.062;2023-01-16T15:22:19;97593.56;;;8.10;76.70
57376;BME280;44805;45.048;5.062;2023-01-16T15:24:52;97608.66;;;8.08;76.65
57376;BME280;44805;45.048;5.062;2023-01-16T15:27:30;97639.00;;;8.17;77.82
57376;BME280;44805;45.048;5.062;2023-01-16T15:30:02;97673.41;;;8.43;78.26
57376;BME280;44805;45.048;5.062;2023-01-16T15:32:29;97648.72;;;8.23;77.34
57376;BME280;44805;45.048;5.062;2023-01-16T15:35:13;97701.19;;;8.59;77.64
57376;BME280;44805;45.048;5.062;2023-01-16T15:37:50;97624.13;;;8.24;78.17
57376;BME280;44805;45.048;5.062;2023-01-16T15:42:53;97661.28;;;8.42;78.37
57376;BME280;44805;45.048;5.062;2023-01-16T15:46:02;97581.53;;;8.00;78.34
57376;BME280;44805;45.048;5.062;2023-01-16T15:48:56;97659.91;;;8.46;78.50
57376;BME280;44805;45.048;5.062;2023-01-16T15:51:24;97657.53;;;8.37;77.89
57376;BME280;44805;45.048;5.062;2023-01-16T15:56:38;97608.69;;;7.78;80.24
57376;BME280;44805;45.048;5.062;2023-01-16T16:01:46;97622.97;;;7.75;81.37
57376;BME280;44805;45.048;5.062;2023-01-16T16:09:27;97642.47;;;7.73;81.28
57376;BME280;44805;45.048;5.062;2023-01-16T16:11:57;97558.72;;;7.28;80.05
57376;BME280;44805;45.048;5.062;2023-01-16T16:20:41;97706.31;;;8.16;77.49
57376;BME280;44805;45.048;5.062;2023-01-16T16:28:27;97635.38;;;7.67;77.09
57376;BME280;44805;45.048;5.062;2023-01-16T16:34:23;97555.47;;;7.11;75.06
57376;BME280;44805;45.048;5.062;2023-01-16T16:36:53;97669.94;;;7.77;74.60
57376;BME280;44805;45.048;5.062;2023-01-16T16:41:54;97606.66;;;7.29;70.17
57376;BME280;44805;45.048;5.062;2023-01-16T18:10:30;97600.47;;;6.54;79.35
57376;BME280;44805;45.048;5.062;2023-01-16T18:13:18;97633.03;;;6.66;79.79
57376;BME280;44805;45.048;5.062;2023-01-16T18:30:17;97667.22;;;6.88;79.27
57376;BME280;44805;45.048;5.062;2023-01-16T19:15:53;97700.28;;;6.81;78.14
57376;BME280;44805;45.048;5.062;2023-01-16T20:07:27;97575.88;;;5.86;79.10
